createdAt,value
2018-08-24T00:01:36.071Z,14.03
2018-08-24T00:04:09.631Z,13.05
2018-08-24T00:06:40.371Z,13.13
2018-08-24T00:09:11.026Z,12.37
2018-08-24T00:11:39.943Z,12.63
2018-08-24T00:14:08.601Z,12.87
2018-08-24T00:16:38.841Z,13.73
2018-08-24T00:19:10.624Z,12.87
2018-08-24T00:21:39.021Z,13.97
2018-08-24T00:24:08.203Z,14.30
2018-08-24T00:26:36.671Z,14.47
2018-08-24T00:29:05.537Z,14.53
2018-08-24T00:31:34.379Z,13.83
2018-08-24T00:34:02.724Z,15.13
2018-08-24T00:36:31.076Z,15.40
2018-08-24T00:38:59.427Z,14.63
2018-08-24T00:41:27.811Z,15.60
2018-08-24T00:43:56.159Z,15.33
2018-08-24T00:46:24.559Z,15.00
2018-08-24T00:48:53.577Z,15.83
2018-08-24T00:51:21.859Z,16.00
2018-08-24T00:53:50.158Z,15.27
2018-08-24T00:56:18.457Z,16.23
2018-08-24T00:58:46.826Z,16.00
2018-08-24T01:01:15.215Z,16.75
2018-08-24T01:03:43.567Z,17.27
2018-08-24T01:06:13.489Z,17.13
2018-08-24T01:08:44.359Z,18.27
2018-08-24T01:11:12.799Z,16.70
2018-08-24T01:13:41.075Z,17.27
2018-08-24T01:16:09.385Z,18.03
2018-08-24T01:18:43.011Z,18.50
2018-08-24T01:21:11.273Z,18.23
2018-08-24T01:23:39.508Z,18.67
2018-08-24T01:26:07.802Z,18.37
2018-08-24T01:28:36.078Z,18.33
2018-08-24T01:31:08.513Z,18.43
2018-08-24T01:33:36.832Z,19.60
2018-08-24T01:36:05.209Z,18.83
2018-08-24T01:38:33.546Z,20.43
2018-08-24T01:41:01.785Z,19.67
2018-08-24T01:43:30.136Z,19.13
2018-08-24T01:46:03.798Z,19.37
2018-08-24T01:48:32.377Z,19.87
2018-08-24T01:51:00.653Z,20.57
2018-08-24T01:53:28.944Z,19.00
2018-08-24T01:55:57.220Z,20.67
2018-08-24T01:58:25.664Z,20.97
2018-08-24T02:00:53.928Z,19.40
2018-08-24T02:03:22.183Z,21.17
2018-08-24T02:05:50.451Z,21.53
2018-08-24T02:08:19.826Z,22.00
2018-08-24T02:10:48.130Z,22.60
2018-08-24T02:13:21.603Z,22.47
2018-08-24T02:15:49.907Z,21.03
2018-08-24T02:18:23.538Z,23.30
2018-08-24T02:20:57.054Z,23.00
2018-08-24T02:23:25.343Z,21.70
2018-08-24T02:25:53.609Z,23.03
2018-08-24T02:28:21.886Z,21.40
2018-08-24T02:30:50.154Z,21.63
2018-08-24T02:33:18.436Z,23.80
2018-08-24T02:35:46.730Z,23.50
2018-08-24T02:38:15.066Z,22.23
2018-08-24T02:40:43.338Z,22.83
2018-08-24T02:43:11.661Z,24.90
2018-08-24T02:45:39.923Z,22.93
2018-08-24T02:48:08.181Z,21.53
2018-08-24T02:50:36.434Z,22.30
2018-08-24T02:53:04.820Z,20.10
2018-08-24T02:55:33.100Z,21.97
2018-08-24T02:58:01.438Z,20.97
2018-08-24T03:00:29.684Z,21.37
2018-08-24T03:02:57.993Z,19.20
2018-08-24T03:05:26.469Z,19.47
2018-08-24T03:07:54.561Z,18.60
2018-08-24T03:10:22.898Z,20.33
2018-08-24T03:12:51.216Z,18.03
2018-08-24T03:15:34.372Z,17.60
2018-08-24T03:18:02.661Z,17.50
2018-08-24T03:20:30.933Z,17.20
2018-08-24T03:22:59.180Z,17.83
2018-08-24T03:25:27.507Z,17.77
2018-08-24T03:27:55.813Z,17.87
2018-08-24T03:30:24.206Z,17.73
2018-08-24T03:32:52.597Z,19.93
2018-08-24T03:35:20.958Z,19.12
2018-08-24T03:37:49.777Z,20.77
2018-08-24T03:40:18.029Z,18.90
2018-08-24T03:42:46.293Z,19.50
2018-08-24T03:45:14.570Z,18.62
2018-08-24T03:47:42.889Z,20.27
2018-08-24T03:50:11.158Z,17.53
2018-08-24T03:52:39.446Z,21.63
2018-08-24T03:55:07.733Z,20.40
2018-08-24T03:57:36.016Z,29.83
2018-08-24T04:00:05.039Z,16.97
2018-08-24T04:02:33.330Z,19.80
2018-08-24T04:05:01.725Z,16.17
2018-08-24T04:07:30.032Z,15.00
2018-08-24T04:09:58.337Z,15.07
2018-08-24T04:12:26.662Z,14.20
2018-08-24T04:14:55.145Z,14.47
2018-08-24T04:17:28.709Z,14.20
2018-08-24T04:19:57.129Z,14.27
2018-08-24T04:22:25.396Z,19.87
2018-08-24T04:24:53.669Z,20.67
2018-08-24T04:27:21.928Z,18.90
2018-08-24T04:29:50.312Z,19.00
2018-08-24T04:32:18.632Z,16.05
2018-08-24T04:34:46.966Z,16.20
2018-08-24T04:37:15.271Z,16.10
2018-08-24T04:39:43.603Z,15.83
2018-08-24T04:42:11.894Z,16.37
2018-08-24T04:44:40.227Z,17.17
2018-08-24T04:47:08.520Z,15.93
2018-08-24T04:49:36.796Z,16.90
2018-08-24T04:52:05.085Z,18.07
2018-08-24T04:54:33.387Z,19.90
2018-08-24T04:57:01.727Z,15.87
2018-08-24T04:59:30.217Z,19.17
2018-08-24T05:01:58.619Z,18.17
2018-08-24T05:04:26.987Z,19.63
2018-08-24T05:06:55.406Z,19.10
2018-08-24T05:09:23.724Z,19.93
2018-08-24T05:11:52.033Z,18.90
2018-08-24T05:14:20.307Z,18.00
2018-08-24T05:16:48.739Z,18.60
2018-08-24T05:19:17.024Z,18.53
2018-08-24T05:21:45.321Z,21.63
2018-08-24T05:24:13.607Z,19.97
2018-08-24T05:26:41.884Z,17.87
2018-08-24T05:29:10.201Z,18.27
2018-08-24T05:31:38.517Z,21.10
2018-08-24T05:34:07.029Z,19.40
2018-08-24T05:36:35.329Z,19.95
2018-08-24T05:39:04.428Z,21.47
2018-08-24T05:41:32.900Z,23.93
2018-08-24T05:44:01.165Z,18.97
2018-08-24T05:46:29.453Z,21.20
2018-08-24T05:48:58.343Z,19.20
2018-08-24T05:51:26.740Z,20.93
2018-08-24T05:53:55.043Z,18.27
2018-08-24T05:56:23.415Z,20.40
2018-08-24T05:58:51.755Z,19.77
2018-08-24T06:01:20.925Z,22.30
2018-08-24T06:03:49.204Z,20.80
2018-08-24T06:06:17.480Z,21.03
2018-08-24T06:08:50.043Z,24.53
2018-08-24T06:11:18.359Z,22.47
2018-08-24T06:13:46.920Z,20.47
2018-08-24T06:16:15.292Z,21.00
2018-08-24T06:18:43.606Z,22.13
2018-08-24T06:21:11.904Z,19.43
2018-08-24T06:23:40.239Z,19.27
2018-08-24T06:26:08.591Z,20.23
2018-08-24T06:28:37.021Z,20.67
2018-08-24T06:31:05.584Z,18.10
2018-08-24T06:33:33.926Z,20.10
2018-08-24T06:36:02.516Z,20.43
2018-08-24T06:38:31.415Z,22.60
2018-08-24T06:40:59.782Z,21.53
2018-08-24T06:43:28.065Z,21.17
2018-08-24T06:45:56.366Z,19.20
2018-08-24T06:48:24.801Z,18.57
2018-08-24T06:50:53.085Z,18.70
2018-08-24T06:53:21.603Z,21.20
2018-08-24T06:55:49.857Z,24.97
2018-08-24T06:58:18.520Z,23.13
2018-08-24T07:00:46.784Z,25.70
2018-08-24T07:03:15.132Z,14.20
2018-08-24T07:05:43.570Z,15.57
2018-08-24T07:08:11.910Z,11.17
2018-08-24T07:10:40.875Z,8.27
2018-08-24T07:13:09.415Z,9.13
2018-08-24T07:15:37.668Z,11.73
2018-08-24T07:18:05.956Z,10.37
2018-08-24T07:20:34.332Z,11.23
2018-08-24T07:23:02.691Z,9.03
2018-08-24T07:25:31.073Z,8.73
2018-08-24T07:27:59.393Z,9.40
2018-08-24T07:30:27.727Z,11.23
2018-08-24T07:32:56.054Z,11.27
2018-08-24T07:35:24.361Z,10.13
2018-08-24T07:37:52.678Z,9.70
2018-08-24T07:40:21.264Z,11.45
2018-08-24T07:42:49.508Z,14.77
2018-08-24T07:45:17.912Z,9.97
2018-08-24T07:47:46.265Z,12.90
2018-08-24T07:50:14.686Z,11.53
2018-08-24T07:52:43.092Z,13.60
2018-08-24T07:55:11.545Z,11.63
2018-08-24T07:57:39.833Z,18.30
2018-08-24T08:00:08.202Z,13.63
2018-08-24T08:02:41.883Z,15.23
2018-08-24T08:05:10.314Z,13.40
2018-08-24T08:07:38.578Z,11.33
2018-08-24T08:10:08.112Z,10.67
2018-08-24T08:12:36.503Z,12.17
2018-08-24T08:15:07.310Z,7.73
2018-08-24T08:17:36.303Z,7.33
2018-08-24T08:20:04.807Z,8.63
2018-08-24T08:22:33.221Z,5.97
2018-08-24T08:25:01.605Z,6.33
2018-08-24T08:27:30.472Z,7.87
2018-08-24T08:29:59.776Z,6.17
2018-08-24T08:32:28.814Z,5.40
2018-08-24T08:34:57.108Z,7.37
2018-08-24T08:37:25.464Z,6.43
2018-08-24T08:39:58.610Z,6.67
2018-08-24T08:42:27.517Z,8.30
2018-08-24T08:45:00.650Z,9.63
2018-08-24T08:47:28.939Z,7.37
2018-08-24T08:49:57.282Z,6.63
2018-08-24T08:52:25.578Z,7.13
2018-08-24T08:54:53.959Z,6.03
2018-08-24T08:57:22.499Z,4.83
2018-08-24T08:59:51.460Z,6.30
2018-08-24T09:02:19.836Z,5.23
2018-08-24T09:04:48.288Z,6.70
2018-08-24T09:07:16.676Z,5.23
2018-08-24T09:09:45.078Z,4.83
2018-08-24T09:12:13.373Z,6.10
2018-08-24T09:14:41.917Z,3.93
2018-08-24T09:17:15.630Z,5.27
2018-08-24T09:19:49.390Z,5.83
2018-08-24T09:22:23.031Z,7.50
2018-08-24T09:24:56.575Z,7.63
2018-08-24T09:27:29.963Z,5.30
2018-08-24T09:30:01.129Z,7.50
2018-08-24T09:32:29.575Z,4.40
2018-08-24T09:34:57.819Z,5.43
2018-08-24T09:37:31.435Z,6.43
2018-08-24T09:39:59.706Z,5.17
2018-08-24T09:42:27.985Z,6.77
2018-08-24T09:44:56.603Z,5.93
2018-08-24T09:47:31.082Z,6.40
2018-08-24T09:50:04.600Z,6.23
2018-08-24T09:52:32.953Z,7.53
2018-08-24T09:55:01.375Z,3.77
2018-08-24T09:57:29.688Z,5.87
2018-08-24T09:59:58.623Z,5.57
2018-08-24T10:02:32.328Z,7.13
2018-08-24T10:05:05.944Z,6.47
2018-08-24T10:07:40.229Z,4.87
2018-08-24T10:10:08.628Z,6.77
2018-08-24T10:12:37.870Z,3.70
2018-08-24T10:15:07.889Z,7.40
2018-08-24T10:17:36.180Z,5.00
2018-08-24T10:20:05.119Z,6.20
2018-08-24T10:22:33.828Z,5.63
2018-08-24T10:25:02.464Z,4.20
2018-08-24T10:27:30.803Z,5.70
2018-08-24T10:29:59.087Z,4.93
2018-08-24T10:32:27.399Z,6.23
2018-08-24T10:34:55.825Z,6.33
2018-08-24T10:37:24.217Z,4.30
2018-08-24T10:39:52.672Z,6.00
2018-08-24T10:42:21.061Z,5.90
2018-08-24T10:44:50.121Z,4.50
2018-08-24T10:47:18.456Z,9.00
2018-08-24T10:49:46.737Z,4.40
2018-08-24T10:52:15.029Z,4.87
2018-08-24T10:54:43.398Z,5.60
2018-08-24T10:57:11.692Z,5.12
2018-08-24T10:59:40.585Z,8.63
2018-08-24T11:02:08.955Z,3.80
2018-08-24T11:04:37.283Z,5.03
2018-08-24T11:07:05.619Z,5.07
2018-08-24T11:09:34.141Z,3.47
2018-08-24T11:12:03.022Z,2.97
2018-08-24T11:14:31.345Z,4.47
2018-08-24T11:16:59.708Z,2.47
2018-08-24T11:19:27.973Z,3.70
2018-08-24T11:21:56.432Z,2.93
2018-08-24T11:24:24.865Z,6.97
2018-08-24T11:26:53.153Z,5.37
2018-08-24T11:29:21.614Z,4.30
2018-08-24T11:31:49.821Z,5.73
2018-08-24T11:34:18.120Z,5.08
2018-08-24T11:36:46.455Z,3.40
2018-08-24T11:39:14.790Z,5.03
2018-08-24T11:41:43.187Z,3.90
2018-08-24T11:44:11.527Z,8.07
2018-08-24T11:46:39.855Z,4.53
2018-08-24T11:49:08.181Z,4.97
2018-08-24T11:51:36.501Z,4.50
2018-08-24T11:54:05.057Z,6.20
2018-08-24T11:56:33.944Z,5.00
2018-08-24T11:59:02.248Z,4.63
2018-08-24T12:01:30.574Z,3.57
2018-08-24T12:03:58.875Z,4.70
2018-08-24T12:06:27.233Z,2.27
2018-08-24T12:08:55.587Z,3.63
2018-08-24T12:11:23.976Z,4.07
2018-08-24T12:13:52.397Z,2.57
2018-08-24T12:16:20.722Z,4.70
2018-08-24T12:18:49.096Z,3.23
2018-08-24T12:21:18.120Z,3.30
2018-08-24T12:23:46.448Z,3.23
2018-08-24T12:26:14.929Z,4.87
2018-08-24T12:28:43.463Z,3.43
2018-08-24T12:31:11.795Z,3.42
2018-08-24T12:33:40.629Z,2.57
2018-08-24T12:36:13.865Z,3.63
2018-08-24T12:38:42.311Z,4.07
2018-08-24T12:41:10.920Z,3.43
2018-08-24T12:43:39.848Z,4.53
2018-08-24T12:46:09.057Z,5.37
2018-08-24T12:48:37.881Z,6.05
2018-08-24T12:51:06.178Z,5.20
2018-08-24T12:53:34.898Z,3.77
2018-08-24T12:56:03.211Z,4.03
2018-08-24T12:58:31.750Z,2.83
2018-08-24T13:01:00.091Z,3.92
2018-08-24T13:03:28.407Z,3.27
2018-08-24T13:05:57.012Z,3.30
2018-08-24T13:08:25.624Z,4.03
2018-08-24T13:10:54.116Z,4.63
2018-08-24T13:13:22.420Z,5.28
2018-08-24T13:15:50.755Z,2.83
2018-08-24T13:18:19.339Z,4.43
2018-08-24T13:20:47.644Z,4.67
2018-08-24T13:23:16.155Z,3.80
2018-08-24T13:25:45.576Z,3.87
2018-08-24T13:28:13.845Z,4.20
2018-08-24T13:30:42.213Z,4.93
2018-08-24T13:33:10.668Z,3.50
2018-08-24T13:35:40.054Z,6.40
2018-08-24T13:38:08.637Z,3.53
2018-08-24T13:40:36.991Z,3.97
2018-08-24T13:43:05.772Z,5.07
2018-08-24T13:45:34.637Z,4.30
2018-08-24T13:48:03.275Z,3.03
2018-08-24T13:50:32.136Z,3.47
2018-08-24T13:53:00.438Z,5.80
2018-08-24T13:55:29.098Z,2.30
2018-08-24T13:57:58.012Z,3.67
2018-08-24T14:00:27.088Z,2.73
2018-08-24T14:02:56.173Z,6.87
2018-08-24T14:05:24.566Z,3.20
2018-08-24T14:07:53.941Z,3.40
2018-08-24T14:10:22.349Z,4.12
2018-08-24T14:12:51.260Z,7.53
2018-08-24T14:15:20.798Z,5.10
2018-08-24T14:17:53.180Z,2.97
2018-08-24T14:20:22.686Z,3.23
2018-08-24T14:22:51.535Z,2.10
2018-08-24T14:25:20.492Z,3.43
2018-08-24T14:27:49.055Z,1.70
2018-08-24T14:30:20.856Z,3.80
2018-08-24T14:32:49.718Z,3.93
2018-08-24T14:35:18.024Z,3.30
2018-08-24T14:37:46.319Z,2.87
2018-08-24T14:40:15.255Z,4.53
2018-08-24T14:42:43.639Z,3.60
2018-08-24T14:45:12.633Z,6.90
2018-08-24T14:47:41.060Z,2.60
2018-08-24T14:50:09.974Z,6.97
2018-08-24T14:52:40.436Z,2.27
2018-08-24T14:55:08.821Z,5.30
2018-08-24T14:57:37.671Z,3.07
2018-08-24T15:00:07.509Z,3.13
2018-08-24T15:02:38.146Z,3.83
2018-08-24T15:05:10.146Z,6.53
2018-08-24T15:07:38.435Z,5.80
2018-08-24T15:15:05.503Z,2.53
2018-08-24T15:17:34.401Z,3.07
2018-08-24T15:20:04.138Z,3.90
2018-08-24T15:22:33.248Z,5.30
2018-08-24T15:25:02.416Z,2.77
2018-08-24T15:27:31.092Z,4.10
2018-08-24T15:29:59.469Z,2.93
2018-08-24T15:32:29.158Z,3.53
2018-08-24T15:34:57.512Z,2.47
2018-08-24T15:37:26.231Z,4.30
2018-08-24T15:39:54.881Z,2.60
2018-08-24T15:42:23.384Z,3.97
2018-08-24T15:44:52.609Z,4.10
2018-08-24T15:47:20.924Z,4.63
2018-08-24T15:49:49.297Z,3.00
2018-08-24T15:52:17.784Z,5.83
2018-08-24T15:54:46.113Z,4.33
2018-08-24T15:57:14.627Z,5.75
2018-08-24T15:59:43.221Z,4.83
2018-08-24T16:02:11.804Z,8.63
2018-08-24T16:04:40.585Z,4.00
2018-08-24T16:07:08.933Z,2.80
2018-08-24T16:09:38.060Z,6.07
2018-08-24T16:12:07.368Z,4.60
2018-08-24T16:14:35.811Z,5.13
2018-08-24T16:17:05.213Z,6.50
2018-08-24T16:19:33.879Z,7.23
2018-08-24T16:22:02.305Z,5.43
2018-08-24T16:24:30.834Z,5.37
2018-08-24T16:26:59.320Z,6.70
2018-08-24T16:29:27.690Z,5.40
2018-08-24T16:31:56.176Z,4.17
2018-08-24T16:34:24.639Z,6.03
2018-08-24T16:36:53.036Z,5.57
2018-08-24T16:39:21.789Z,4.53
2018-08-24T16:41:50.129Z,4.70
2018-08-24T16:44:18.776Z,4.17
2018-08-24T16:46:47.122Z,5.10
2018-08-24T16:49:16.065Z,4.70
2018-08-24T16:51:45.234Z,2.60
2018-08-24T16:54:13.626Z,4.62
2018-08-24T16:56:42.157Z,6.07
2018-08-24T16:59:10.775Z,3.15
2018-08-24T17:01:39.097Z,6.17
2018-08-24T17:04:07.479Z,3.33
2018-08-24T17:06:35.754Z,3.87
2018-08-24T17:09:08.276Z,6.37
2018-08-24T17:11:36.801Z,3.27
2018-08-24T17:14:06.043Z,4.97
2018-08-24T17:16:34.725Z,4.20
2018-08-24T17:19:03.198Z,2.70
2018-08-24T17:21:32.357Z,5.17
2018-08-24T17:24:00.651Z,3.73
2018-08-24T17:26:29.006Z,6.43
2018-08-24T17:28:57.569Z,6.27
2018-08-24T17:31:26.105Z,6.63
2018-08-24T17:33:54.440Z,3.93
2018-08-24T17:36:22.865Z,2.37
2018-08-24T17:38:51.988Z,3.40
2018-08-24T17:41:20.559Z,6.20
2018-08-24T17:43:49.630Z,3.57
2018-08-24T17:46:18.518Z,5.03
2018-08-24T17:48:47.721Z,6.00
2018-08-24T17:51:16.403Z,2.20
2018-08-24T17:53:44.881Z,3.63
2018-08-24T17:56:13.355Z,3.20
2018-08-24T17:58:41.865Z,5.93
2018-08-24T18:01:10.264Z,5.53
2018-08-24T18:03:38.597Z,6.03
2018-08-24T18:06:11.236Z,4.53
2018-08-24T18:08:39.620Z,7.87
2018-08-24T18:11:07.934Z,4.37
2018-08-24T18:13:36.242Z,6.67
2018-08-24T18:16:05.176Z,4.17
2018-08-24T18:18:33.572Z,5.73
2018-08-24T18:21:01.936Z,6.30
2018-08-24T18:23:30.606Z,4.80
2018-08-24T18:25:59.097Z,3.67
2018-08-24T18:28:27.870Z,4.87
2018-08-24T18:30:56.501Z,11.60
2018-08-24T18:33:24.972Z,3.77
2018-08-24T18:35:53.534Z,6.27
2018-08-24T18:38:22.264Z,2.63
2018-08-24T18:40:50.781Z,4.95
2018-08-24T18:43:19.380Z,3.87
2018-08-24T18:45:48.321Z,3.95
2018-08-24T18:48:16.966Z,5.63
2018-08-24T18:50:45.565Z,4.43
2018-08-24T18:53:14.222Z,3.87
2018-08-24T18:55:42.808Z,5.10
2018-08-24T18:58:11.357Z,6.60
2018-08-24T19:00:39.686Z,6.27
2018-08-24T19:03:08.347Z,5.07
2018-08-24T19:05:37.243Z,8.10
2018-08-24T19:08:10.675Z,6.63
2018-08-24T19:10:44.353Z,3.97
2018-08-24T19:13:14.929Z,5.12
2018-08-24T19:15:43.618Z,3.63
2018-08-24T19:18:17.086Z,5.17
2018-08-24T19:20:50.644Z,6.33
2018-08-24T19:23:19.266Z,6.63
2018-08-24T19:25:47.644Z,5.20
2018-08-24T19:28:21.124Z,5.20
2018-08-24T19:30:49.442Z,7.90
2018-08-24T19:33:18.206Z,4.77
2018-08-24T19:35:50.772Z,8.63
2018-08-24T19:38:19.148Z,9.53
2018-08-24T19:40:52.787Z,8.87
2018-08-24T19:43:21.148Z,10.23
2018-08-24T19:45:49.555Z,11.47
2018-08-24T19:48:23.191Z,8.35
2018-08-24T19:50:52.136Z,10.37
2018-08-24T19:53:20.549Z,7.75
2018-08-24T19:55:48.842Z,6.40
2018-08-24T19:58:22.512Z,7.37
2018-08-24T20:00:51.020Z,5.13
2018-08-24T20:03:19.212Z,7.37
2018-08-24T20:05:52.814Z,5.50
2018-08-24T20:08:26.456Z,7.15
2018-08-24T20:10:54.837Z,6.00
2018-08-24T20:13:23.134Z,4.30
2018-08-24T20:15:56.773Z,5.87
2018-08-24T20:18:25.791Z,6.63
2018-08-24T20:20:54.640Z,6.37
2018-08-24T20:23:22.980Z,6.57
2018-08-24T20:25:51.265Z,5.77
2018-08-24T20:28:20.209Z,6.83
2018-08-24T20:30:48.659Z,6.03
2018-08-24T20:33:16.955Z,9.03
2018-08-24T20:35:45.210Z,4.37
2018-08-24T20:38:13.650Z,6.08
2018-08-24T20:40:42.233Z,6.37
2018-08-24T20:43:10.686Z,7.43
2018-08-24T20:45:39.688Z,4.37
2018-08-24T20:48:08.065Z,5.33
2018-08-24T20:50:36.715Z,5.40
2018-08-24T20:53:05.681Z,4.87
2018-08-24T20:55:34.056Z,6.13
2018-08-24T20:58:02.351Z,8.07
2018-08-24T21:00:30.629Z,6.10
2018-08-24T21:02:59.510Z,4.37
2018-08-24T21:05:27.792Z,5.80
2018-08-24T21:07:56.147Z,3.40
2018-08-24T21:10:25.164Z,6.00
2018-08-24T21:12:54.041Z,3.33
2018-08-24T21:15:22.312Z,7.33
2018-08-24T21:17:50.677Z,5.87
2018-08-24T21:20:18.953Z,2.15
2018-08-24T21:22:47.264Z,3.37
2018-08-24T21:25:15.644Z,4.65
2018-08-24T21:27:43.910Z,3.83
2018-08-24T21:30:12.398Z,3.35
2018-08-24T21:32:41.127Z,3.57
2018-08-24T21:35:09.466Z,2.93
2018-08-24T21:37:37.777Z,3.87
2018-08-24T21:40:06.885Z,4.05
2018-08-24T21:42:35.343Z,5.03
2018-08-24T21:45:03.618Z,4.10
2018-08-24T21:47:31.996Z,3.73
2018-08-24T21:50:00.965Z,3.57
2018-08-24T21:52:29.550Z,2.90
2018-08-24T21:54:58.023Z,3.07
2018-08-24T21:57:26.414Z,4.57
2018-08-24T21:59:54.890Z,3.87
2018-08-24T22:02:23.211Z,2.97
2018-08-24T22:04:51.546Z,3.53
2018-08-24T22:07:19.824Z,3.00
2018-08-24T22:09:48.344Z,2.90
2018-08-24T22:12:16.650Z,4.60
2018-08-24T22:14:45.199Z,3.53
2018-08-24T22:17:13.553Z,3.33
2018-08-24T22:19:41.923Z,3.80
2018-08-24T22:22:10.383Z,3.33
2018-08-24T22:24:38.682Z,3.63
2018-08-24T22:27:07.180Z,4.90
2018-08-24T22:29:35.620Z,4.73
2018-08-24T22:32:04.880Z,3.83
2018-08-24T22:34:33.128Z,7.30
2018-08-24T22:37:01.511Z,4.30
2018-08-24T22:39:29.764Z,5.23
2018-08-24T22:41:58.283Z,3.23
2018-08-24T22:44:27.556Z,2.77
2018-08-24T22:46:55.991Z,3.17
2018-08-24T22:49:24.525Z,4.20
2018-08-24T22:51:54.317Z,5.27
2018-08-24T22:54:23.387Z,4.83
2018-08-24T22:56:52.190Z,3.27
2018-08-24T22:59:20.622Z,4.13
2018-08-24T23:01:49.300Z,7.50
2018-08-24T23:04:17.800Z,5.87
2018-08-24T23:06:46.248Z,3.47
2018-08-24T23:09:14.775Z,6.17
2018-08-24T23:11:43.451Z,4.07
2018-08-24T23:14:11.919Z,2.90
2018-08-24T23:16:40.380Z,4.27
2018-08-24T23:19:09.716Z,4.67
2018-08-24T23:21:38.242Z,5.50
2018-08-24T23:24:06.874Z,5.40
2018-08-24T23:26:36.276Z,7.60
2018-08-24T23:29:05.614Z,4.92
2018-08-24T23:31:34.083Z,3.40
2018-08-24T23:34:03.283Z,3.53
2018-08-24T23:36:31.832Z,6.83
2018-08-24T23:39:00.293Z,4.27
2018-08-24T23:41:28.811Z,7.60
2018-08-24T23:43:57.314Z,4.23
2018-08-24T23:46:26.368Z,3.27
2018-08-24T23:48:54.822Z,5.85
2018-08-24T23:51:23.372Z,3.93
2018-08-24T23:53:51.968Z,4.73
2018-08-24T23:56:21.862Z,6.97
2018-08-24T23:58:50.548Z,4.37
